createdAt,value
2023-05-05T00:02:09.065Z,14.68
2023-05-05T00:04:36.326Z,14.30
2023-05-05T00:07:03.389Z,14.43
2023-05-05T00:09:31.526Z,13.95
2023-05-05T00:11:59.012Z,14.27
2023-05-05T00:14:26.088Z,14.18
2023-05-05T00:16:53.212Z,13.13
2023-05-05T00:19:20.766Z,13.85
2023-05-05T00:21:47.815Z,16.33
2023-05-05T00:24:14.820Z,13.73
2023-05-05T00:26:41.924Z,14.30
2023-05-05T00:29:09.084Z,13.35
2023-05-05T00:31:36.176Z,14.02
2023-05-05T00:34:03.253Z,14.32
2023-05-05T00:36:31.186Z,13.45
2023-05-05T00:38:58.468Z,13.45
2023-05-05T00:41:25.960Z,13.98
2023-05-05T00:43:52.998Z,13.93
2023-05-05T00:46:25.234Z,13.48
2023-05-05T00:48:53.014Z,12.68
2023-05-05T00:51:20.866Z,12.10
2023-05-05T00:53:48.971Z,13.65
2023-05-05T00:56:17.342Z,13.25
2023-05-05T00:58:45.714Z,12.43
2023-05-05T01:01:13.648Z,13.25
2023-05-05T01:03:44.033Z,12.63
2023-05-05T01:06:19.219Z,12.45
2023-05-05T01:09:27.507Z,11.57
2023-05-05T01:12:03.554Z,12.13
2023-05-05T01:14:40.854Z,12.38
2023-05-05T01:17:17.899Z,12.48
2023-05-05T01:19:54.823Z,12.77
2023-05-05T01:22:24.368Z,12.75
2023-05-05T01:25:20.293Z,12.48
2023-05-05T01:28:05.059Z,12.30
2023-05-05T01:30:48.031Z,12.10
2023-05-05T01:33:15.989Z,12.73
2023-05-05T01:35:50.147Z,12.55
2023-05-05T01:38:26.306Z,12.55
2023-05-05T01:41:14.123Z,11.77
2023-05-05T01:43:41.392Z,11.60
2023-05-05T01:46:08.618Z,12.32
2023-05-05T01:48:37.026Z,11.95
2023-05-05T01:51:04.408Z,11.98
2023-05-05T01:53:31.905Z,11.45
2023-05-05T01:55:59.797Z,12.38
2023-05-05T01:58:26.975Z,12.88
2023-05-05T02:00:54.440Z,12.68
2023-05-05T02:03:22.989Z,12.48
2023-05-05T02:05:50.291Z,12.70
2023-05-05T02:08:17.558Z,11.70
2023-05-05T02:10:44.614Z,10.77
2023-05-05T02:13:13.221Z,10.88
2023-05-05T02:15:40.549Z,10.55
2023-05-05T02:18:08.008Z,9.63
2023-05-05T02:20:37.526Z,9.50
2023-05-05T02:23:06.496Z,10.13
2023-05-05T02:25:44.395Z,9.88
2023-05-05T02:28:42.453Z,9.18
2023-05-05T02:31:10.569Z,9.40
2023-05-05T02:33:37.803Z,9.93
2023-05-05T02:36:32.625Z,9.70
2023-05-05T02:39:04.679Z,9.52
2023-05-05T02:41:36.929Z,9.25
2023-05-05T02:44:09.005Z,9.53
2023-05-05T02:46:37.896Z,10.25
2023-05-05T02:49:05.754Z,9.18
2023-05-05T02:51:33.350Z,9.57
2023-05-05T02:54:04.600Z,9.95
2023-05-05T02:56:44.227Z,9.32
2023-05-05T02:59:16.455Z,9.20
2023-05-05T03:01:48.882Z,8.50
2023-05-05T03:04:28.012Z,10.13
2023-05-05T03:06:59.852Z,9.13
2023-05-05T03:09:37.784Z,10.07
2023-05-05T03:12:07.537Z,10.23
2023-05-05T03:14:45.548Z,10.68
2023-05-05T03:17:15.730Z,9.63
2023-05-05T03:19:43.540Z,9.90
2023-05-05T03:22:10.800Z,9.93
2023-05-05T03:24:42.318Z,10.75
2023-05-05T03:27:10.989Z,10.00
2023-05-05T03:29:39.920Z,9.63
2023-05-05T03:32:11.756Z,9.10
2023-05-05T03:34:39.769Z,8.75
2023-05-05T03:37:06.873Z,9.45
2023-05-05T03:39:34.070Z,9.15
2023-05-05T03:42:02.788Z,9.48
2023-05-05T03:44:32.892Z,9.60
2023-05-05T03:47:00.954Z,8.98
2023-05-05T03:49:30.284Z,8.52
2023-05-05T03:51:58.037Z,9.48
2023-05-05T03:54:25.882Z,10.25
2023-05-05T03:56:53.408Z,9.95
2023-05-05T03:59:20.466Z,9.57
2023-05-05T04:01:49.008Z,9.73
2023-05-05T04:04:17.062Z,9.40
2023-05-05T04:06:44.125Z,10.93
2023-05-05T04:09:12.200Z,11.18
2023-05-05T04:11:39.886Z,10.65
2023-05-05T04:14:07.795Z,12.82
2023-05-05T04:16:35.174Z,13.63
2023-05-05T04:19:02.537Z,13.75
2023-05-05T04:21:31.915Z,15.63
2023-05-05T04:23:59.632Z,15.02
2023-05-05T04:26:27.746Z,16.10
2023-05-05T04:28:56.887Z,14.13
2023-05-05T04:31:24.699Z,15.15
2023-05-05T04:33:51.895Z,15.07
2023-05-05T04:36:19.224Z,15.93
2023-05-05T04:38:47.871Z,14.52
2023-05-05T04:41:14.986Z,14.57
2023-05-05T04:43:43.564Z,14.98
2023-05-05T04:46:11.663Z,13.32
2023-05-05T04:48:38.992Z,14.57
2023-05-05T04:51:07.992Z,13.98
2023-05-05T04:53:38.972Z,12.50
2023-05-05T04:56:06.277Z,13.35
2023-05-05T04:58:33.514Z,12.85
2023-05-05T05:01:00.819Z,13.13
2023-05-05T05:03:27.966Z,10.95
2023-05-05T05:05:55.217Z,10.00
2023-05-05T05:08:22.806Z,11.40
2023-05-05T05:10:49.866Z,9.80
2023-05-05T05:13:17.173Z,10.02
2023-05-05T05:15:44.325Z,9.02
2023-05-05T05:18:12.172Z,8.63
2023-05-05T05:20:39.833Z,7.40
2023-05-05T05:23:07.628Z,8.13
2023-05-05T05:25:39.836Z,7.80
2023-05-05T05:28:10.623Z,7.70
2023-05-05T05:30:50.216Z,7.50
2023-05-05T05:33:17.235Z,6.88
2023-05-05T05:35:45.079Z,6.35
2023-05-05T05:38:12.865Z,6.75
2023-05-05T05:40:40.336Z,6.90
2023-05-05T05:43:08.165Z,5.60
2023-05-05T05:45:37.621Z,6.72
2023-05-05T05:48:06.354Z,6.43
2023-05-05T05:50:35.813Z,6.30
2023-05-05T05:53:03.368Z,6.55
2023-05-05T05:55:31.447Z,6.35
2023-05-05T05:58:00.199Z,6.50
2023-05-05T06:00:28.645Z,6.60
2023-05-05T06:03:03.921Z,6.43
2023-05-05T06:05:34.335Z,6.13
2023-05-05T06:08:01.400Z,6.32
2023-05-05T06:10:30.614Z,6.20
2023-05-05T06:13:05.834Z,6.88
2023-05-05T06:15:35.401Z,5.90
2023-05-05T06:18:05.742Z,6.47
2023-05-05T06:20:33.846Z,5.38
2023-05-05T06:23:01.128Z,5.32
2023-05-05T06:25:32.230Z,5.57
2023-05-05T06:28:00.049Z,6.07
2023-05-05T06:30:27.239Z,6.15
2023-05-05T06:32:54.849Z,5.85
2023-05-05T06:35:22.380Z,6.07
2023-05-05T06:37:49.431Z,5.80
2023-05-05T06:40:16.633Z,5.50
2023-05-05T06:42:44.755Z,6.78
2023-05-05T06:45:17.314Z,6.13
2023-05-05T06:47:44.570Z,7.18
2023-05-05T06:50:11.726Z,6.57
2023-05-05T06:52:38.797Z,7.70
2023-05-05T06:55:06.365Z,7.75
2023-05-05T06:57:33.742Z,6.50
2023-05-05T07:00:00.784Z,8.23
2023-05-05T07:02:28.004Z,6.50
2023-05-05T07:04:56.179Z,7.20
2023-05-05T07:07:24.029Z,7.15
2023-05-05T07:09:51.219Z,7.45
2023-05-05T07:12:18.225Z,6.50
2023-05-05T07:14:46.732Z,6.82
2023-05-05T07:17:13.803Z,6.50
2023-05-05T07:19:40.859Z,7.82
2023-05-05T07:22:07.843Z,6.85
2023-05-05T07:24:34.834Z,6.57
2023-05-05T07:27:02.782Z,6.65
2023-05-05T07:29:29.880Z,5.90
2023-05-05T07:31:58.077Z,6.15
2023-05-05T07:34:25.513Z,5.88
2023-05-05T07:36:52.509Z,5.85
2023-05-05T07:39:21.137Z,5.95
2023-05-05T07:41:48.690Z,5.63
2023-05-05T07:44:16.035Z,5.43
2023-05-05T07:46:43.049Z,5.35
2023-05-05T07:49:10.124Z,5.95
2023-05-05T07:51:37.583Z,6.00
2023-05-05T07:54:05.041Z,5.47
2023-05-05T07:56:32.861Z,5.57
2023-05-05T07:59:00.174Z,5.15
2023-05-05T08:01:27.194Z,5.93
2023-05-05T08:03:54.974Z,6.55
2023-05-05T08:06:24.928Z,5.57
2023-05-05T08:08:53.789Z,5.75
2023-05-05T08:11:21.809Z,5.47
2023-05-05T08:13:48.994Z,5.50
2023-05-05T08:16:16.176Z,6.18
2023-05-05T08:18:43.333Z,5.78
2023-05-05T08:21:10.683Z,5.90
2023-05-05T08:23:38.204Z,6.07
2023-05-05T08:26:11.976Z,7.13
2023-05-05T08:28:39.886Z,6.90
2023-05-05T08:31:07.986Z,6.97
2023-05-05T08:33:35.022Z,7.13
2023-05-05T08:36:02.082Z,7.07
2023-05-05T08:38:32.176Z,6.65
2023-05-05T08:40:59.214Z,6.80
2023-05-05T08:43:26.300Z,6.50
2023-05-05T08:45:56.747Z,6.43
2023-05-05T08:48:24.809Z,6.13
2023-05-05T08:50:56.258Z,5.88
2023-05-05T08:53:46.884Z,5.75
2023-05-05T08:56:16.702Z,6.18
2023-05-05T08:58:43.843Z,5.07
2023-05-05T09:01:10.806Z,5.00
2023-05-05T09:03:39.027Z,5.63
2023-05-05T09:06:06.804Z,4.93
2023-05-05T09:08:34.202Z,4.75
2023-05-05T09:11:02.363Z,5.07
2023-05-05T09:13:30.413Z,4.22
2023-05-05T09:15:58.080Z,5.15
2023-05-05T09:18:25.806Z,4.55
2023-05-05T09:20:52.900Z,4.80
2023-05-05T09:23:20.368Z,4.30
2023-05-05T09:25:49.560Z,4.47
2023-05-05T09:28:17.570Z,4.10
2023-05-05T09:30:45.959Z,3.85
2023-05-05T09:33:16.392Z,4.40
2023-05-05T09:35:53.658Z,4.03
2023-05-05T09:38:21.542Z,3.78
2023-05-05T09:40:55.448Z,3.85
2023-05-05T09:43:23.898Z,3.92
2023-05-05T09:45:51.055Z,4.15
2023-05-05T09:48:28.320Z,3.88
2023-05-05T09:50:57.028Z,4.20
2023-05-05T09:53:24.447Z,3.92
2023-05-05T09:55:57.773Z,3.92
2023-05-05T09:58:27.200Z,3.67
2023-05-05T10:00:57.159Z,3.97
2023-05-05T10:03:25.200Z,3.67
2023-05-05T10:05:55.762Z,3.53
2023-05-05T10:08:27.967Z,3.75
2023-05-05T10:10:56.220Z,3.60
2023-05-05T10:13:25.554Z,3.72
2023-05-05T10:15:54.104Z,3.67
2023-05-05T10:18:23.780Z,4.30
2023-05-05T10:20:58.651Z,3.90
2023-05-05T10:23:39.801Z,4.90
2023-05-05T10:26:07.723Z,4.55
2023-05-05T10:28:54.473Z,4.60
2023-05-05T10:31:26.411Z,3.95
2023-05-05T10:33:58.682Z,4.32
2023-05-05T10:36:26.795Z,4.93
2023-05-05T10:38:57.841Z,4.75
2023-05-05T10:41:26.828Z,4.68
2023-05-05T10:43:56.233Z,4.43
2023-05-05T10:46:24.103Z,4.60
2023-05-05T10:49:10.561Z,4.50
2023-05-05T10:51:51.497Z,3.72
2023-05-05T10:54:32.957Z,7.60
2023-05-05T10:57:02.763Z,3.75
2023-05-05T10:59:39.961Z,5.25
2023-05-05T11:02:29.824Z,3.08
2023-05-05T11:05:17.574Z,3.50
2023-05-05T11:07:46.062Z,4.47
2023-05-05T11:10:14.436Z,3.10
2023-05-05T11:13:03.059Z,3.35
2023-05-05T11:15:30.757Z,3.08
2023-05-05T11:18:05.735Z,3.45
2023-05-05T11:20:37.142Z,3.70
2023-05-05T11:23:04.651Z,3.45
2023-05-05T11:25:35.684Z,3.00
2023-05-05T11:28:11.189Z,2.90
2023-05-05T11:30:59.952Z,2.55
2023-05-05T11:33:31.833Z,2.58
2023-05-05T11:35:59.867Z,2.17
2023-05-05T11:38:31.776Z,2.63
2023-05-05T11:41:22.870Z,2.60
2023-05-05T11:43:49.907Z,2.65
2023-05-05T11:46:17.345Z,3.03
2023-05-05T11:48:53.015Z,3.67
2023-05-05T11:51:20.061Z,3.40
2023-05-05T11:53:48.135Z,3.15
2023-05-05T11:56:22.505Z,3.15
2023-05-05T11:58:50.069Z,2.92
2023-05-05T12:01:19.625Z,2.63
2023-05-05T12:03:47.093Z,2.80
2023-05-05T12:06:14.247Z,2.40
2023-05-05T12:08:41.569Z,2.42
2023-05-05T12:11:09.904Z,2.58
2023-05-05T12:13:37.117Z,2.90
2023-05-05T12:16:14.628Z,3.13
2023-05-05T12:18:42.003Z,3.47
2023-05-05T12:21:18.567Z,3.97
2023-05-05T12:23:45.661Z,4.07
2023-05-05T12:26:25.919Z,4.50
2023-05-05T12:28:53.040Z,3.90
2023-05-05T12:31:20.852Z,4.10
2023-05-05T12:33:48.640Z,3.20
2023-05-05T12:36:16.457Z,3.75
2023-05-05T12:38:43.483Z,3.10
2023-05-05T12:41:10.684Z,3.00
2023-05-05T12:43:38.843Z,3.40
2023-05-05T12:46:11.075Z,3.05
2023-05-05T12:48:39.685Z,3.20
2023-05-05T12:51:24.938Z,3.33
2023-05-05T12:54:11.188Z,3.33
2023-05-05T12:56:40.585Z,3.10
2023-05-05T12:59:08.831Z,3.28
2023-05-05T13:01:36.734Z,3.22
2023-05-05T13:04:08.493Z,3.00
2023-05-05T13:06:36.179Z,3.50
2023-05-05T13:09:03.799Z,3.38
2023-05-05T13:11:30.794Z,3.20
2023-05-05T13:13:57.862Z,3.30
2023-05-05T13:16:26.468Z,2.97
2023-05-05T13:18:54.769Z,3.00
2023-05-05T13:21:24.503Z,3.25
2023-05-05T13:23:51.884Z,2.90
2023-05-05T13:26:18.932Z,3.42
2023-05-05T13:28:46.157Z,2.97
2023-05-05T13:31:13.246Z,3.08
2023-05-05T13:33:40.373Z,2.78
2023-05-05T13:36:08.201Z,3.00
2023-05-05T13:38:36.570Z,2.50
2023-05-05T13:41:03.958Z,2.35
2023-05-05T13:43:32.104Z,2.47
2023-05-05T13:46:12.239Z,2.28
2023-05-05T13:48:46.066Z,2.80
2023-05-05T13:51:13.120Z,2.40
2023-05-05T13:53:44.177Z,2.42
2023-05-05T13:56:11.411Z,2.13
2023-05-05T13:58:38.401Z,2.28
2023-05-05T14:01:08.399Z,2.35
2023-05-05T14:03:35.899Z,2.30
2023-05-05T14:06:03.152Z,1.90
2023-05-05T14:08:30.885Z,1.92
2023-05-05T14:10:59.547Z,2.00
2023-05-05T14:13:27.217Z,2.15
2023-05-05T14:15:54.588Z,1.85
2023-05-05T14:18:22.747Z,2.15
2023-05-05T14:20:52.556Z,1.75
2023-05-05T14:23:20.135Z,1.70
2023-05-05T14:25:50.979Z,1.90
2023-05-05T14:28:22.403Z,2.33
2023-05-05T14:30:51.543Z,2.28
2023-05-05T14:33:22.330Z,1.63
2023-05-05T14:35:53.895Z,1.70
2023-05-05T14:38:21.601Z,1.80
2023-05-05T14:40:52.659Z,1.83
2023-05-05T14:43:19.869Z,1.75
2023-05-05T14:45:46.908Z,2.10
2023-05-05T14:48:17.412Z,1.70
2023-05-05T14:53:30.593Z,1.83
2023-05-05T14:55:57.778Z,2.20
2023-05-05T14:58:24.855Z,1.98
2023-05-05T15:00:54.944Z,1.83
2023-05-05T15:03:22.759Z,1.85
2023-05-05T15:08:33.932Z,2.03
2023-05-05T15:11:03.510Z,1.65
2023-05-05T15:13:31.819Z,2.05
2023-05-05T15:16:02.304Z,2.13
2023-05-05T15:18:32.026Z,3.20
2023-05-05T15:20:59.132Z,2.10
2023-05-05T15:23:29.499Z,1.98
2023-05-05T15:25:56.858Z,1.67
2023-05-05T15:28:24.458Z,1.58
2023-05-05T15:30:54.378Z,1.88
2023-05-05T15:33:21.485Z,1.60
2023-05-05T15:35:48.520Z,2.13
2023-05-05T15:38:15.623Z,1.40
2023-05-05T15:40:44.450Z,1.63
2023-05-05T15:43:11.739Z,1.50
2023-05-05T15:45:41.561Z,1.90
2023-05-05T15:48:08.686Z,1.60
2023-05-05T15:50:35.681Z,1.50
2023-05-05T15:53:03.018Z,1.45
2023-05-05T15:55:32.941Z,1.70
2023-05-05T15:57:59.932Z,1.80
2023-05-05T16:00:28.177Z,1.75
2023-05-05T16:02:56.590Z,1.77
2023-05-05T16:05:23.621Z,1.40
2023-05-05T16:07:50.897Z,1.42
2023-05-05T16:10:19.437Z,1.38
2023-05-05T16:12:46.446Z,1.40
2023-05-05T16:15:13.514Z,1.67
2023-05-05T16:17:41.872Z,1.55
2023-05-05T16:20:09.875Z,1.50
2023-05-05T16:22:37.245Z,1.45
2023-05-05T16:25:04.698Z,1.90
2023-05-05T16:27:31.797Z,1.98
2023-05-05T16:29:59.923Z,2.00
2023-05-05T16:32:27.027Z,1.80
2023-05-05T16:34:54.350Z,2.03
2023-05-05T16:37:21.429Z,2.17
2023-05-05T16:39:48.700Z,2.33
2023-05-05T16:42:15.954Z,2.83
2023-05-05T16:44:43.025Z,2.10
2023-05-05T16:47:10.591Z,2.30
2023-05-05T16:49:37.660Z,2.20
2023-05-05T16:52:05.349Z,2.60
2023-05-05T16:54:32.361Z,2.33
2023-05-05T16:57:00.569Z,2.45
2023-05-05T16:59:29.668Z,2.90
2023-05-05T17:01:59.137Z,2.75
2023-05-05T17:04:26.392Z,2.60
2023-05-05T17:06:54.995Z,2.33
2023-05-05T17:09:25.340Z,2.80
2023-05-05T17:11:53.601Z,2.80
2023-05-05T17:14:20.796Z,3.63
2023-05-05T17:16:47.860Z,3.03
2023-05-05T17:19:14.964Z,2.90
2023-05-05T17:21:43.157Z,3.45
2023-05-05T17:24:10.345Z,3.80
2023-05-05T17:26:38.827Z,3.45
2023-05-05T17:29:06.985Z,3.70
2023-05-05T17:31:34.159Z,3.70
2023-05-05T17:34:01.250Z,3.60
2023-05-05T17:36:28.369Z,3.92
2023-05-05T17:38:56.099Z,4.35
2023-05-05T17:41:25.767Z,4.32
2023-05-05T17:43:53.062Z,4.22
2023-05-05T17:46:20.263Z,4.40
2023-05-05T17:48:47.980Z,4.20
2023-05-05T17:51:14.998Z,4.30
2023-05-05T17:53:42.138Z,4.95
2023-05-05T17:56:10.860Z,4.47
2023-05-05T17:58:38.956Z,5.00
2023-05-05T18:01:06.335Z,5.32
2023-05-05T18:03:33.472Z,5.15
2023-05-05T18:06:01.237Z,5.70
2023-05-05T18:08:28.368Z,5.68
2023-05-05T18:10:55.781Z,5.78
2023-05-05T18:13:22.858Z,4.90
2023-05-05T18:15:49.925Z,5.55
2023-05-05T18:18:16.992Z,4.72
2023-05-05T18:20:44.058Z,5.30
2023-05-05T18:23:11.610Z,4.78
2023-05-05T18:25:42.181Z,4.50
2023-05-05T18:28:09.775Z,4.97
2023-05-05T18:30:36.804Z,4.60
2023-05-05T18:33:04.263Z,5.00
2023-05-05T18:35:33.981Z,5.13
2023-05-05T18:38:03.351Z,4.22
2023-05-05T18:40:33.817Z,4.50
2023-05-05T18:43:03.823Z,4.70
2023-05-05T18:45:33.773Z,4.65
2023-05-05T18:48:09.402Z,4.38
2023-05-05T18:50:37.080Z,4.70
2023-05-05T18:53:07.917Z,4.68
2023-05-05T18:55:34.881Z,5.60
2023-05-05T18:58:03.895Z,5.47
2023-05-05T19:00:34.249Z,5.95
2023-05-05T19:03:07.835Z,5.55
2023-05-05T19:05:35.032Z,6.30
2023-05-05T19:08:29.008Z,6.20
2023-05-05T19:11:12.609Z,6.03
2023-05-05T19:13:40.056Z,7.00
2023-05-05T19:16:11.259Z,6.43
2023-05-05T19:18:47.057Z,6.43
2023-05-05T19:21:14.137Z,6.78
2023-05-05T19:23:41.255Z,6.63
2023-05-05T19:26:15.161Z,6.57
2023-05-05T19:28:48.310Z,6.70
2023-05-05T19:31:15.752Z,6.18
2023-05-05T19:33:45.686Z,6.75
2023-05-05T19:36:12.896Z,6.22
2023-05-05T19:38:45.101Z,6.18
2023-05-05T19:41:18.861Z,6.80
2023-05-05T19:47:22.827Z,7.45
2023-05-05T19:49:49.866Z,6.28
2023-05-05T19:52:16.785Z,6.57
2023-05-05T19:54:43.934Z,6.32
2023-05-05T19:57:11.067Z,7.10
2023-05-05T19:59:38.097Z,6.85
2023-05-05T20:02:05.802Z,7.10
2023-05-05T20:04:36.044Z,6.85
2023-05-05T20:07:03.907Z,6.57
2023-05-05T20:09:30.960Z,6.68
2023-05-05T20:11:59.187Z,6.82
2023-05-05T20:14:26.267Z,6.70
2023-05-05T20:16:53.307Z,6.53
2023-05-05T20:19:20.878Z,6.78
2023-05-05T20:21:47.902Z,6.25
2023-05-05T20:24:14.973Z,6.28
2023-05-05T20:26:42.034Z,6.45
2023-05-05T20:29:09.129Z,7.18
2023-05-05T20:31:36.928Z,6.20
2023-05-05T20:34:05.808Z,6.63
2023-05-05T20:36:33.818Z,6.57
2023-05-05T20:39:03.725Z,7.32
2023-05-05T20:41:31.430Z,6.25
2023-05-05T20:43:58.538Z,6.47
2023-05-05T20:46:25.909Z,6.70
2023-05-05T20:48:53.042Z,6.45
2023-05-05T20:51:20.811Z,6.43
2023-05-05T20:53:50.764Z,6.80
2023-05-05T20:56:17.896Z,6.32
2023-05-05T20:58:44.944Z,6.97
2023-05-05T21:01:12.160Z,6.38
2023-05-05T21:03:40.039Z,6.93
2023-05-05T21:06:07.093Z,7.22
2023-05-05T21:08:34.872Z,7.32
2023-05-05T21:11:03.129Z,7.50
2023-05-05T21:13:30.768Z,7.40
2023-05-05T21:15:58.386Z,7.82
2023-05-05T21:18:27.614Z,7.90
2023-05-05T21:20:58.846Z,7.35
2023-05-05T21:23:29.278Z,7.70
2023-05-05T21:25:56.847Z,7.88
2023-05-05T21:28:25.094Z,7.70
2023-05-05T21:31:10.466Z,7.35
2023-05-05T21:33:39.787Z,7.50
2023-05-05T21:36:09.004Z,7.15
2023-05-05T21:38:36.232Z,7.35
2023-05-05T21:41:04.210Z,6.55
2023-05-05T21:43:34.765Z,7.22
2023-05-05T21:46:03.800Z,7.40
2023-05-05T21:48:31.477Z,6.95
2023-05-05T21:50:58.591Z,7.20
2023-05-05T21:53:25.970Z,8.13
2023-05-05T21:55:53.079Z,8.18
2023-05-05T21:58:20.615Z,8.30
2023-05-05T22:00:51.008Z,8.07
2023-05-05T22:03:18.633Z,7.38
2023-05-05T22:05:48.811Z,7.38
2023-05-05T22:08:16.029Z,7.90
2023-05-05T22:10:43.170Z,8.40
2023-05-05T22:13:12.474Z,8.07
2023-05-05T22:15:46.758Z,7.47
2023-05-05T22:18:15.321Z,10.70
2023-05-05T22:20:42.669Z,7.65
2023-05-05T22:23:10.209Z,7.82
2023-05-05T22:25:37.821Z,7.65
2023-05-05T22:28:05.096Z,8.02
2023-05-05T22:30:32.849Z,8.30
2023-05-05T22:33:00.003Z,8.10
2023-05-05T22:35:27.416Z,7.53
2023-05-05T22:37:54.638Z,7.85
2023-05-05T22:40:21.839Z,8.05
2023-05-05T22:42:48.901Z,7.47
2023-05-05T22:45:16.209Z,7.82
2023-05-05T22:47:44.210Z,9.48
2023-05-05T22:50:11.919Z,8.63
2023-05-05T22:52:39.064Z,8.77
2023-05-05T22:55:06.810Z,8.27
2023-05-05T22:57:34.703Z,9.40
2023-05-05T23:00:03.088Z,8.68
2023-05-05T23:02:32.627Z,7.22
2023-05-05T23:04:59.828Z,7.78
2023-05-05T23:07:26.939Z,8.65
2023-05-05T23:09:54.811Z,8.02
2023-05-05T23:12:21.873Z,8.27
2023-05-05T23:14:49.965Z,8.07
2023-05-05T23:17:17.049Z,8.07
2023-05-05T23:19:49.924Z,8.93
2023-05-05T23:22:17.023Z,8.93
2023-05-05T23:24:44.081Z,9.85
2023-05-05T23:27:11.048Z,8.68
2023-05-05T23:29:38.359Z,8.32
2023-05-05T23:32:05.871Z,7.25
2023-05-05T23:34:32.932Z,7.03
2023-05-05T23:36:59.998Z,7.43
2023-05-05T23:39:27.403Z,5.90
2023-05-05T23:41:54.417Z,5.22
2023-05-05T23:44:21.475Z,6.65
2023-05-05T23:46:48.462Z,6.10
2023-05-05T23:49:15.449Z,6.82
2023-05-05T23:51:42.407Z,7.35
2023-05-05T23:54:09.556Z,7.25
2023-05-05T23:56:36.624Z,7.95
2023-05-05T23:59:04.925Z,7.60
